This is the latest recevied weather packets stored in our database for station/object EA3KZ-1. If no packets are shown the sender has not sent any weather packets the latest 10 day(s).
| Time | Temp. | Humidity | Pressure | Rain* | Wind** | Luminosity | Snow |
|---|---|---|---|---|---|---|---|
| 1787570165 | 29.44° C | 57% | 1010.2 hPa | 0 mm | - | - | - |
| 1787569563 | 29.44° C | 58% | 1010.1 hPa | 0 mm | - | - | - |
| 1787568960 | 28.89° C | 58% | 1010.3 hPa | 0 mm | - | - | - |
| 1787568357 | 28.89° C | 59% | 1010.4 hPa | 0 mm | - | - | - |
| 1787567755 | 28.89° C | 59% | 1010.6 hPa | 0 mm | - | - | - |
| 1787567152 | 28.89° C | 58% | 1010.7 hPa | 0 mm | - | - | - |
| 1787566550 | 28.89° C | 60% | 1010.6 hPa | 0 mm | - | - | - |
| 1787565947 | 28.33° C | 63% | 1011.2 hPa | 0 mm | - | - | - |
| 1787565344 | 28.33° C | 64% | 1011.4 hPa | 0 mm | - | - | - |
| 1787564742 | 28.33° C | 64% | 1011.3 hPa | 0 mm | - | - | - |
| 1787564140 | 27.78° C | 68% | 1011.4 hPa | 0 mm | - | - | - |
| 1787563537 | 27.22° C | 69% | 1011.2 hPa | 0 mm | - | - | - |
| 1787562934 | 26.67° C | 70% | 1011.2 hPa | 0 mm | - | - | - |
| 1787562331 | 26.67° C | 73% | 1011.8 hPa | 0 mm | - | - | - |
| 1787561729 | 27.78° C | 68% | 1011.9 hPa | 0 mm | - | - | - |
| 1787561126 | 26.67° C | 72% | 1012 hPa | 0 mm | - | - | - |
| 1787560524 | 26.67° C | 72% | 1011.7 hPa | 0 mm | - | - | - |
| 1787559922 | 26.11° C | 73% | 1011.7 hPa | 0 mm | - | - | - |
| 1787559319 | 26.67° C | 71% | 1011.3 hPa | 0 mm | - | - | - |
| 1787558716 | 26.11° C | 74% | 1011.1 hPa | 0 mm | - | - | - |
| 1787558173 | 26.11° C | 74% | 1010.8 hPa | 0 mm | - | - | - |
| 1787557571 | 25.56° C | 77% | 1011.2 hPa | 0 mm | - | - | - |
| 1787556969 | 25° C | 79% | 1011.1 hPa | 0 mm | - | - | - |
| 1787556366 | 24.44° C | 79% | 1011.3 hPa | 0 mm | - | - | - |
| 1787555763 | 25° C | 79% | 1011.5 hPa | 0 mm | - | - | - |
* Rain latest hour (hover to see other rain measurements)
** Current wind speed in m/s (hover to see current wind gust speed)